Time,TemperatureF,DewpointF,PressureIn,WindDirection,WindDirectionDegrees,WindSpeedMPH,WindSpeedGustMPH,Humidity,HourlyPrecipIn,Conditions,Clouds,dailyrainin,SoftwareType,DateUTC
2013-11-27 00:04:00,10.4,5.5,30.32,NW,322,0.0,4.0,80,0.00,,SKC,0.00,VWS V14.01,2013-11-27 06:04:00,
2013-11-27 00:09:00,10.3,5.1,30.32,NW,322,2.0,4.0,79,0.00,,SKC,0.00,VWS V14.01,2013-11-27 06:09:00,
2013-11-27 00:14:00,10.2,5.0,30.32,NW,322,0.0,4.0,79,0.00,,SKC,0.00,VWS V14.01,2013-11-27 06:14:00,
2013-11-27 00:19:00,10.1,4.9,30.32,NW,322,2.0,5.0,79,0.00,,SKC,0.00,VWS V14.01,2013-11-27 06:19:00,
2013-11-27 00:24:00,10.0,4.8,30.31,NW,322,2.0,5.0,79,0.00,,SKC,0.00,VWS V14.01,2013-11-27 06:24:00,
2013-11-27 00:29:00,9.9,4.7,30.31,NW,322,2.0,5.0,79,0.00,,SKC,0.00,VWS V14.01,2013-11-27 06:29:00,
2013-11-27 00:30:00,9.9,5.0,30.31,NW,322,0.0,5.0,80,0.00,,SKC,0.00,VWS V14.01,2013-11-27 06:30:00,
2013-11-27 00:34:00,9.9,5.0,30.32,NW,322,0.0,2.0,80,0.00,,SKC,0.00,VWS V14.01,2013-11-27 06:34:00,
2013-11-27 00:39:00,9.9,5.0,30.31,NW,322,1.0,2.0,80,0.00,,SKC,0.00,VWS V14.01,2013-11-27 06:39:00,
2013-11-27 00:44:00,9.9,5.0,30.32,NW,322,1.0,2.0,80,0.00,,SKC,0.00,VWS V14.01,2013-11-27 06:44:00,
2013-11-27 00:49:00,9.9,5.0,30.32,NW,322,0.0,3.0,80,0.00,,SKC,0.00,VWS V14.01,2013-11-27 06:49:00,
2013-11-27 00:54:00,9.8,4.9,30.32,NW,322,0.0,3.0,80,0.00,,SKC,0.00,VWS V14.01,2013-11-27 06:54:00,
2013-11-27 00:59:00,9.6,4.7,30.32,NW,322,0.0,3.0,80,0.00,,SKC,0.00,VWS V14.01,2013-11-27 06:59:00,
2013-11-27 01:00:00,9.5,4.6,30.32,NW,322,0.0,3.0,80,0.00,,SKC,0.00,VWS V14.01,2013-11-27 07:00:00,
2013-11-27 01:04:00,9.5,4.6,30.31,NW,322,0.0,1.0,80,0.00,,SKC,0.00,VWS V14.01,2013-11-27 07:04:00,
2013-11-27 01:09:00,9.5,4.9,30.32,NW,322,0.0,3.0,81,0.00,,SKC,0.00,VWS V14.01,2013-11-27 07:09:00,
2013-11-27 01:14:00,9.4,4.8,30.31,NW,322,0.0,3.0,81,0.00,,SKC,0.00,VWS V14.01,2013-11-27 07:14:00,
2013-11-27 01:19:00,9.4,4.8,30.31,NW,322,0.0,3.0,81,0.00,,SKC,0.00,VWS V14.01,2013-11-27 07:19:00,
2013-11-27 01:24:00,9.3,4.7,30.32,NW,322,1.0,3.0,81,0.00,,SKC,0.00,VWS V14.01,2013-11-27 07:24:00,
2013-11-27 01:29:00,9.3,4.7,30.32,NW,322,0.0,3.0,81,0.00,,SKC,0.00,VWS V14.01,2013-11-27 07:29:00,
2013-11-27 01:30:00,9.2,4.6,30.32,NW,322,0.0,3.0,81,0.00,,SKC,0.00,VWS V14.01,2013-11-27 07:30:00,
2013-11-27 01:35:00,9.2,4.6,30.32,NW,322,0.0,0.0,81,0.00,,SKC,0.00,VWS V14.01,2013-11-27 07:35:00,
2013-11-27 01:40:00,9.1,4.5,30.32,NW,322,2.0,2.0,81,0.00,,SKC,0.00,VWS V14.01,2013-11-27 07:40:00,
2013-11-27 01:45:00,9.1,4.7,30.32,NW,322,0.0,2.0,82,0.00,,SKC,0.00,VWS V14.01,2013-11-27 07:45:00,
2013-11-27 01:50:00,9.1,4.7,30.32,NW,322,0.0,2.0,82,0.00,,SKC,0.00,VWS V14.01,2013-11-27 07:50:00,
2013-11-27 01:55:00,9.0,4.6,30.32,NW,322,0.0,2.0,82,0.00,,SKC,0.00,VWS V14.01,2013-11-27 07:55:00,
2013-11-27 02:00:00,8.9,4.5,30.32,NW,322,0.0,2.0,82,0.00,,SKC,0.00,VWS V14.01,2013-11-27 08:00:00,
2013-11-27 02:05:00,8.8,4.4,30.33,NW,322,0.0,0.0,82,0.00,,SKC,0.00,VWS V14.01,2013-11-27 08:05:00,
2013-11-27 02:10:00,8.7,4.6,30.33,NW,322,0.0,1.0,83,0.00,,SKC,0.00,VWS V14.01,2013-11-27 08:10:00,
2013-11-27 02:15:00,8.7,4.6,30.33,NW,322,0.0,1.0,83,0.00,,SKC,0.00,VWS V14.01,2013-11-27 08:15:00,
2013-11-27 02:20:00,8.7,4.9,30.33,NW,322,0.0,1.0,84,0.00,,SKC,0.00,VWS V14.01,2013-11-27 08:20:00,
2013-11-27 02:25:00,8.6,4.8,30.33,NW,322,0.0,1.0,84,0.00,,SKC,0.00,VWS V14.01,2013-11-27 08:25:00,
2013-11-27 02:30:00,8.5,4.7,30.33,NW,322,0.0,1.0,84,0.00,,SKC,0.00,VWS V14.01,2013-11-27 08:30:00,
2013-11-27 02:35:00,8.4,4.6,30.33,NW,322,0.0,0.0,84,0.00,,SKC,0.00,VWS V14.01,2013-11-27 08:35:00,
2013-11-27 02:40:00,8.3,4.5,30.33,NW,322,0.0,0.0,84,0.00,,SKC,0.00,VWS V14.01,2013-11-27 08:40:00,
2013-11-27 02:45:00,8.3,4.5,30.33,NW,322,0.0,2.0,84,0.00,,SKC,0.00,VWS V14.01,2013-11-27 08:45:00,
2013-11-27 02:50:00,8.2,4.4,30.33,NW,322,0.0,2.0,84,0.00,,SKC,0.00,VWS V14.01,2013-11-27 08:50:00,
2013-11-27 02:55:00,8.2,4.4,30.32,NW,322,0.0,2.0,84,0.00,,SKC,0.00,VWS V14.01,2013-11-27 08:55:00,
2013-11-27 03:00:00,8.1,4.3,30.32,NW,322,0.0,2.0,84,0.00,,SKC,0.00,VWS V14.01,2013-11-27 09:00:00,
2013-11-27 03:05:00,8.0,4.2,30.32,NW,322,0.0,0.0,84,0.00,,SKC,0.00,VWS V14.01,2013-11-27 09:05:00,
2013-11-27 03:10:00,7.9,4.3,30.32,NW,322,0.0,0.0,85,0.00,,SKC,0.00,VWS V14.01,2013-11-27 09:10:00,
2013-11-27 03:15:00,7.8,4.2,30.32,NW,322,0.0,0.0,85,0.00,,SKC,0.00,VWS V14.01,2013-11-27 09:15:00,
2013-11-27 03:20:00,7.7,3.9,30.31,NW,322,0.0,0.0,84,0.00,,SKC,0.00,VWS V14.01,2013-11-27 09:20:00,
2013-11-27 03:25:00,7.7,4.1,30.31,NW,322,0.0,0.0,85,0.00,,SKC,0.00,VWS V14.01,2013-11-27 09:25:00,
2013-11-27 03:30:00,7.8,4.2,30.31,NW,322,0.0,1.0,85,0.00,,SKC,0.00,VWS V14.01,2013-11-27 09:30:00,
2013-11-27 03:35:00,7.7,4.1,30.31,NW,322,0.0,0.0,85,0.00,,SKC,0.00,VWS V14.01,2013-11-27 09:35:00,
2013-11-27 03:40:00,7.6,4.0,30.31,NW,322,0.0,0.0,85,0.00,,SKC,0.00,VWS V14.01,2013-11-27 09:40:00,
2013-11-27 03:45:00,7.6,4.0,30.31,NW,322,0.0,0.0,85,0.00,,SKC,0.00,VWS V14.01,2013-11-27 09:45:00,
2013-11-27 03:50:00,7.4,3.8,30.31,NW,322,0.0,1.0,85,0.00,,SKC,0.00,VWS V14.01,2013-11-27 09:50:00,
2013-11-27 03:55:00,7.4,3.8,30.31,NW,322,0.0,1.0,85,0.00,,SKC,0.00,VWS V14.01,2013-11-27 09:55:00,
2013-11-27 04:00:00,7.4,3.8,30.31,NW,322,0.0,1.0,85,0.00,,SKC,0.00,VWS V14.01,2013-11-27 10:00:00,
2013-11-27 04:01:00,7.4,3.8,30.31,NW,322,0.0,1.0,85,0.00,,SKC,0.00,VWS V14.01,2013-11-27 10:01:00,
2013-11-27 04:07:00,7.4,4.1,30.31,NW,322,0.0,1.0,86,0.00,,SKC,0.00,VWS V14.01,2013-11-27 10:07:00,
2013-11-27 04:12:00,7.3,4.0,30.31,NW,322,1.0,2.0,86,0.00,,SKC,0.00,VWS V14.01,2013-11-27 10:12:00,
2013-11-27 04:17:00,7.2,3.9,30.31,NW,322,2.0,4.0,86,0.00,,SKC,0.00,VWS V14.01,2013-11-27 10:17:00,
2013-11-27 04:22:00,7.2,3.9,30.31,NW,322,2.0,5.0,86,0.00,,SKC,0.00,VWS V14.01,2013-11-27 10:22:00,
2013-11-27 04:27:00,7.2,3.9,30.31,NW,322,4.0,5.0,86,0.00,,SKC,0.00,VWS V14.01,2013-11-27 10:27:00,
2013-11-27 04:30:00,7.1,3.8,30.31,NW,322,0.0,5.0,86,0.00,,SKC,0.00,VWS V14.01,2013-11-27 10:30:00,
2013-11-27 04:32:00,7.1,3.8,30.31,NW,322,0.0,0.0,86,0.00,,SKC,0.00,VWS V14.01,2013-11-27 10:32:00,
2013-11-27 04:37:00,7.1,3.8,30.31,NW,322,0.0,4.0,86,0.00,,SKC,0.00,VWS V14.01,2013-11-27 10:37:00,
2013-11-27 04:42:00,7.1,3.8,30.31,NW,322,2.0,4.0,86,0.00,,SKC,0.00,VWS V14.01,2013-11-27 10:42:00,
2013-11-27 04:47:00,7.1,3.8,30.31,NW,322,1.0,4.0,86,0.00,,SKC,0.00,VWS V14.01,2013-11-27 10:47:00,
2013-11-27 04:52:00,7.0,3.7,30.31,NW,322,0.0,4.0,86,0.00,,SKC,0.00,VWS V14.01,2013-11-27 10:52:00,
2013-11-27 04:57:00,6.9,3.6,30.31,NW,322,0.0,4.0,86,0.00,,SKC,0.00,VWS V14.01,2013-11-27 10:57:00,
2013-11-27 05:00:00,6.9,3.6,30.31,NW,322,2.0,4.0,86,0.00,,SKC,0.00,VWS V14.01,2013-11-27 11:00:00,
2013-11-27 05:02:00,6.9,3.6,30.31,NW,322,0.0,2.0,86,0.00,,SKC,0.00,VWS V14.01,2013-11-27 11:02:00,
2013-11-27 05:07:00,6.9,3.6,30.32,NW,322,1.0,3.0,86,0.00,,SKC,0.00,VWS V14.01,2013-11-27 11:07:00,
2013-11-27 05:12:00,7.0,3.7,30.31,NW,322,1.0,4.0,86,0.00,,SKC,0.00,VWS V14.01,2013-11-27 11:12:00,
2013-11-27 05:17:00,7.0,3.7,30.31,NW,322,0.0,4.0,86,0.00,,SKC,0.00,VWS V14.01,2013-11-27 11:17:00,
2013-11-27 05:22:00,6.9,3.6,30.31,NW,322,0.0,4.0,86,0.00,,SKC,0.00,VWS V14.01,2013-11-27 11:22:00,
2013-11-27 05:27:00,6.9,3.6,30.31,NW,322,0.0,4.0,86,0.00,,SKC,0.00,VWS V14.01,2013-11-27 11:27:00,
2013-11-27 05:30:00,6.8,3.5,30.31,NW,322,1.0,4.0,86,0.00,,SKC,0.00,VWS V14.01,2013-11-27 11:30:00,
2013-11-27 05:32:00,6.8,3.5,30.31,NW,322,0.0,1.0,86,0.00,,SKC,0.00,VWS V14.01,2013-11-27 11:32:00,
2013-11-27 05:37:00,6.7,3.4,30.31,NW,322,0.0,2.0,86,0.00,,SKC,0.00,VWS V14.01,2013-11-27 11:37:00,
2013-11-27 05:42:00,6.8,3.5,30.30,NW,322,0.0,2.0,86,0.00,,SKC,0.00,VWS V14.01,2013-11-27 11:42:00,
2013-11-27 05:47:00,6.8,3.5,30.31,NW,322,0.0,2.0,86,0.00,,SKC,0.00,VWS V14.01,2013-11-27 11:47:00,
2013-11-27 05:52:00,6.7,3.7,30.31,NW,322,0.0,2.0,87,0.00,,SKC,0.00,VWS V14.01,2013-11-27 11:52:00,
2013-11-27 05:57:00,6.7,3.7,30.31,NW,322,0.0,2.0,87,0.00,,SKC,0.00,VWS V14.01,2013-11-27 11:57:00,
2013-11-27 06:00:00,6.6,3.6,30.31,NW,322,0.0,2.0,87,0.00,,SKC,0.00,VWS V14.01,2013-11-27 12:00:00,
2013-11-27 06:02:00,6.6,3.6,30.31,NW,322,0.0,0.0,87,0.00,,SKC,0.00,VWS V14.01,2013-11-27 12:02:00,
2013-11-27 06:07:00,6.6,3.3,30.31,NW,322,0.0,0.0,86,0.00,,SKC,0.00,VWS V14.01,2013-11-27 12:07:00,
2013-11-27 06:12:00,6.6,3.3,30.31,NW,322,0.0,0.0,86,0.00,,SKC,0.00,VWS V14.01,2013-11-27 12:12:00,
2013-11-27 06:17:00,6.7,3.7,30.31,NW,322,0.0,0.0,87,0.00,,SKC,0.00,VWS V14.01,2013-11-27 12:17:00,
2013-11-27 06:23:00,6.8,3.8,30.31,NW,322,0.0,0.0,87,0.00,,SKC,0.00,VWS V14.01,2013-11-27 12:23:00,
2013-11-27 06:28:00,6.7,3.7,30.31,NW,322,0.0,0.0,87,0.00,,SKC,0.00,VWS V14.01,2013-11-27 12:28:00,
2013-11-27 06:30:00,6.7,3.7,30.31,NW,322,0.0,0.0,87,0.00,,SKC,0.00,VWS V14.01,2013-11-27 12:30:00,
2013-11-27 06:33:00,6.6,3.6,30.31,NW,322,0.0,0.0,87,0.00,,SKC,0.00,VWS V14.01,2013-11-27 12:33:00,
2013-11-27 06:38:00,6.5,3.5,30.30,NW,322,0.0,0.0,87,0.00,,SKC,0.00,VWS V14.01,2013-11-27 12:38:00,
2013-11-27 06:43:00,6.5,3.5,30.31,NW,322,0.0,0.0,87,0.00,,SKC,0.00,VWS V14.01,2013-11-27 12:43:00,
2013-11-27 06:48:00,6.9,4.1,30.31,NW,322,0.0,0.0,88,0.00,,SKC,0.00,VWS V14.01,2013-11-27 12:48:00,
2013-11-27 06:53:00,7.0,4.2,30.30,NW,322,0.0,0.0,88,0.00,,SKC,0.00,VWS V14.01,2013-11-27 12:53:00,
2013-11-27 06:58:00,6.9,4.1,30.30,NW,322,0.0,0.0,88,0.00,,SKC,0.00,VWS V14.01,2013-11-27 12:58:00,
2013-11-27 07:00:00,6.8,4.0,30.29,NW,322,0.0,0.0,88,0.00,,SKC,0.00,VWS V14.01,2013-11-27 13:00:00,
2013-11-27 07:03:00,6.7,3.9,30.29,NW,322,0.0,0.0,88,0.00,,SKC,0.00,VWS V14.01,2013-11-27 13:03:00,
2013-11-27 07:08:00,6.6,3.8,30.29,NW,322,0.0,0.0,88,0.00,,SKC,0.00,VWS V14.01,2013-11-27 13:08:00,
2013-11-27 07:13:00,6.3,3.5,30.29,NW,322,0.0,0.0,88,0.00,,SKC,0.00,VWS V14.01,2013-11-27 13:13:00,
2013-11-27 07:18:00,6.4,3.6,30.29,NW,322,0.0,0.0,88,0.00,,SKC,0.00,VWS V14.01,2013-11-27 13:18:00,
2013-11-27 07:23:00,6.6,3.8,30.30,NW,322,0.0,0.0,88,0.00,,SKC,0.00,VWS V14.01,2013-11-27 13:23:00,
2013-11-27 07:28:00,6.5,3.7,30.30,NW,322,0.0,0.0,88,0.00,,SKC,0.00,VWS V14.01,2013-11-27 13:28:00,
2013-11-27 07:30:00,6.5,3.7,30.30,NW,322,0.0,0.0,88,0.00,,SKC,0.00,VWS V14.01,2013-11-27 13:30:00,
2013-11-27 07:33:00,6.4,3.6,30.30,NW,322,0.0,0.0,88,0.00,,SKC,0.00,VWS V14.01,2013-11-27 13:33:00,
2013-11-27 07:38:00,6.4,3.6,30.31,NW,322,0.0,0.0,88,0.00,,SKC,0.00,VWS V14.01,2013-11-27 13:38:00,
2013-11-27 07:43:00,6.5,3.7,30.30,NW,322,0.0,0.0,88,0.00,,SKC,0.00,VWS V14.01,2013-11-27 13:43:00,
2013-11-27 07:48:00,6.6,3.8,30.30,NW,322,0.0,0.0,88,0.00,,SKC,0.00,VWS V14.01,2013-11-27 13:48:00,
2013-11-27 07:53:00,6.7,3.9,30.30,NW,322,0.0,0.0,88,0.00,,SKC,0.00,VWS V14.01,2013-11-27 13:53:00,
2013-11-27 07:58:00,6.8,4.0,30.30,NW,322,0.0,0.0,88,0.00,,SKC,0.00,VWS V14.01,2013-11-27 13:58:00,
2013-11-27 08:00:00,6.9,4.1,30.30,NW,322,0.0,0.0,88,0.00,,SKC,0.00,VWS V14.01,2013-11-27 14:00:00,
2013-11-27 08:03:00,7.1,4.3,30.30,NW,322,0.0,0.0,88,0.00,,SKC,0.00,VWS V14.01,2013-11-27 14:03:00,
2013-11-27 08:08:00,7.3,4.5,30.30,NW,322,0.0,0.0,88,0.00,,SKC,0.00,VWS V14.01,2013-11-27 14:08:00,
2013-11-27 08:13:00,7.4,4.6,30.30,NW,322,0.0,0.0,88,0.00,,SKC,0.00,VWS V14.01,2013-11-27 14:13:00,
2013-11-27 08:18:00,7.7,4.9,30.30,NW,322,0.0,0.0,88,0.00,,SKC,0.00,VWS V14.01,2013-11-27 14:18:00,
2013-11-27 08:23:00,7.8,5.0,30.30,NW,322,0.0,0.0,88,0.00,,SKC,0.00,VWS V14.01,2013-11-27 14:23:00,
2013-11-27 08:28:00,8.0,5.2,30.30,NW,322,0.0,0.0,88,0.00,,SKC,0.00,VWS V14.01,2013-11-27 14:28:00,
2013-11-27 08:30:00,8.0,4.9,30.29,NW,322,0.0,0.0,87,0.00,,SKC,0.00,VWS V14.01,2013-11-27 14:30:00,
2013-11-27 08:33:00,8.1,5.0,30.29,NW,322,0.0,0.0,87,0.00,,SKC,0.00,VWS V14.01,2013-11-27 14:33:00,
2013-11-27 08:38:00,8.4,5.3,30.30,NW,322,0.0,0.0,87,0.00,,SKC,0.00,VWS V14.01,2013-11-27 14:38:00,
2013-11-27 08:43:00,8.7,5.6,30.30,NW,322,0.0,1.0,87,0.00,,SKC,0.00,VWS V14.01,2013-11-27 14:43:00,
2013-11-27 08:48:00,9.1,6.0,30.29,NW,322,0.0,1.0,87,0.00,,SKC,0.00,VWS V14.01,2013-11-27 14:48:00,
2013-11-27 08:53:00,9.5,6.4,30.29,NW,322,0.0,1.0,87,0.00,,SKC,0.00,VWS V14.01,2013-11-27 14:53:00,
2013-11-27 08:58:00,10.0,6.9,30.29,NW,322,0.0,1.0,87,0.00,,SKC,0.00,VWS V14.01,2013-11-27 14:58:00,
2013-11-27 09:00:00,10.6,7.5,30.29,NW,322,0.0,1.0,87,0.00,,SKC,0.00,VWS V14.01,2013-11-27 15:00:00,
2013-11-27 09:03:00,11.4,8.3,30.29,NW,322,0.0,1.0,87,0.00,,SKC,0.00,VWS V14.01,2013-11-27 15:03:00,
2013-11-27 09:08:00,12.4,9.3,30.29,NW,322,0.0,1.0,87,0.00,,SKC,0.00,VWS V14.01,2013-11-27 15:08:00,
2013-11-27 09:13:00,13.2,9.8,30.29,NW,322,0.0,1.0,86,0.00,,SKC,0.00,VWS V14.01,2013-11-27 15:13:00,
2013-11-27 09:18:00,14.0,10.3,30.29,NW,322,0.0,1.0,85,0.00,,SKC,0.00,VWS V14.01,2013-11-27 15:18:00,
2013-11-27 09:24:00,14.8,10.6,30.28,NW,322,0.0,1.0,83,0.00,,SKC,0.00,VWS V14.01,2013-11-27 15:24:00,
2013-11-27 09:29:00,15.0,10.2,30.28,NW,322,0.0,1.0,81,0.00,,SKC,0.00,VWS V14.01,2013-11-27 15:29:00,
2013-11-27 09:30:00,15.2,10.1,30.28,NW,322,0.0,1.0,80,0.00,,SKC,0.00,VWS V14.01,2013-11-27 15:30:00,
2013-11-27 09:34:00,15.1,9.8,30.28,NW,322,0.0,0.0,79,0.00,,SKC,0.00,VWS V14.01,2013-11-27 15:34:00,
2013-11-27 09:39:00,15.1,9.5,30.28,NW,322,0.0,1.0,78,0.00,,SKC,0.00,VWS V14.01,2013-11-27 15:39:00,
2013-11-27 09:44:00,15.0,9.4,30.28,NW,322,0.0,1.0,78,0.00,,SKC,0.00,VWS V14.01,2013-11-27 15:44:00,
2013-11-27 09:49:00,14.9,9.3,30.27,NW,322,0.0,1.0,78,0.00,,SKC,0.00,VWS V14.01,2013-11-27 15:49:00,
2013-11-27 09:54:00,15.6,10.0,30.27,NW,322,0.0,1.0,78,0.00,,SKC,0.00,VWS V14.01,2013-11-27 15:54:00,
2013-11-27 09:59:00,16.0,10.1,30.27,NW,322,0.0,1.0,77,0.00,,SKC,0.00,VWS V14.01,2013-11-27 15:59:00,
2013-11-27 10:00:00,16.0,10.1,30.27,NW,322,0.0,1.0,77,0.00,,SKC,0.00,VWS V14.01,2013-11-27 16:00:00,
2013-11-27 10:04:00,15.3,9.4,30.27,NW,322,0.0,0.0,77,0.00,,SKC,0.00,VWS V14.01,2013-11-27 16:04:00,
2013-11-27 10:09:00,14.9,9.0,30.27,NW,322,0.0,1.0,77,0.00,,SKC,0.00,VWS V14.01,2013-11-27 16:09:00,
2013-11-27 10:14:00,14.5,8.9,30.27,NW,322,0.0,2.0,78,0.00,,SKC,0.00,VWS V14.01,2013-11-27 16:14:00,
2013-11-27 10:19:00,14.6,9.6,30.27,NW,322,0.0,2.0,80,0.00,,SKC,0.00,VWS V14.01,2013-11-27 16:19:00,
2013-11-27 10:24:00,15.0,10.0,30.27,NW,322,0.0,2.0,80,0.00,,SKC,0.00,VWS V14.01,2013-11-27 16:24:00,
2013-11-27 10:29:00,15.8,10.5,30.27,NW,322,2.0,4.0,79,0.00,,SKC,0.00,VWS V14.01,2013-11-27 16:29:00,
2013-11-27 10:30:00,16.2,10.9,30.27,NW,322,1.0,4.0,79,0.00,,SKC,0.00,VWS V14.01,2013-11-27 16:30:00,
2013-11-27 10:34:00,16.8,11.1,30.26,NW,322,3.0,3.0,78,0.00,,SKC,0.00,VWS V14.01,2013-11-27 16:34:00,
2013-11-27 10:39:00,17.8,11.5,30.26,NW,322,0.0,5.0,76,0.00,,SKC,0.00,VWS V14.01,2013-11-27 16:39:00,
2013-11-27 10:44:00,18.2,11.6,30.26,NW,322,0.0,5.0,75,0.00,,SKC,0.00,VWS V14.01,2013-11-27 16:44:00,
2013-11-27 10:49:00,18.5,11.6,30.25,NW,322,3.0,5.0,74,0.00,,SKC,0.00,VWS V14.01,2013-11-27 16:49:00,
2013-11-27 10:54:00,18.4,11.2,30.25,NW,323,0.0,7.0,73,0.00,,SKC,0.00,VWS V14.01,2013-11-27 16:54:00,
2013-11-27 10:59:00,18.3,11.1,30.25,NW,323,1.0,7.0,73,0.00,,SKC,0.00,VWS V14.01,2013-11-27 16:59:00,
2013-11-27 11:00:00,18.4,12.1,30.25,NW,323,1.0,7.0,76,0.00,,SKC,0.00,VWS V14.01,2013-11-27 17:00:00,
2013-11-27 11:04:00,18.3,11.4,30.24,NW,323,0.0,5.0,74,0.00,,SKC,0.00,VWS V14.01,2013-11-27 17:04:00,
2013-11-27 11:09:00,18.3,11.4,30.24,NW,323,0.0,6.0,74,0.00,,SKC,0.00,VWS V14.01,2013-11-27 17:09:00,
2013-11-27 11:14:00,18.4,11.2,30.24,NW,323,0.0,6.0,73,0.00,,SKC,0.00,VWS V14.01,2013-11-27 17:14:00,
2013-11-27 11:19:00,18.5,11.3,30.23,NW,323,0.0,6.0,73,0.00,,SKC,0.00,VWS V14.01,2013-11-27 17:19:00,
2013-11-27 11:24:00,18.6,11.1,30.22,NW,322,0.0,6.0,72,0.00,,SKC,0.00,VWS V14.01,2013-11-27 17:24:00,
2013-11-27 11:29:00,18.7,11.2,30.22,NW,323,5.0,6.0,72,0.00,,SKC,0.00,VWS V14.01,2013-11-27 17:29:00,
2013-11-27 11:30:00,18.7,11.2,30.22,ESE,120,8.0,9.0,72,0.00,,SKC,0.00,VWS V14.01,2013-11-27 17:30:00,
2013-11-27 11:34:00,18.7,10.9,30.21,SE,132,0.0,8.0,71,0.00,,SKC,0.00,VWS V14.01,2013-11-27 17:34:00,
2013-11-27 11:39:00,18.6,11.1,30.21,SE,132,0.0,8.0,72,0.00,,SKC,0.00,VWS V14.01,2013-11-27 17:39:00,
2013-11-27 11:45:00,18.6,11.7,30.20,SE,132,0.0,8.0,74,0.00,,SKC,0.00,VWS V14.01,2013-11-27 17:45:00,
2013-11-27 11:50:00,18.7,11.2,30.20,SE,132,0.0,8.0,72,0.00,,SKC,0.00,VWS V14.01,2013-11-27 17:50:00,
2013-11-27 11:55:00,18.7,10.9,30.19,SE,132,0.0,8.0,71,0.00,,SKC,0.00,VWS V14.01,2013-11-27 17:55:00,
2013-11-27 12:00:00,18.8,11.0,30.19,SE,132,0.0,8.0,71,0.00,,SKC,0.00,VWS V14.01,2013-11-27 18:00:00,
2013-11-27 12:05:00,18.8,10.6,30.19,SE,132,0.0,8.0,70,0.00,,SKC,0.00,VWS V14.01,2013-11-27 18:05:00,
2013-11-27 12:10:00,18.9,11.1,30.19,SE,132,0.0,8.0,71,0.00,,SKC,0.00,VWS V14.01,2013-11-27 18:10:00,
2013-11-27 12:15:00,18.7,10.9,30.19,SE,132,0.0,8.0,71,0.00,,SKC,0.00,VWS V14.01,2013-11-27 18:15:00,
2013-11-27 12:20:00,18.7,10.9,30.19,SE,132,0.0,8.0,71,0.00,,SKC,0.00,VWS V14.01,2013-11-27 18:20:00,
2013-11-27 12:25:00,18.8,10.6,30.19,SE,133,3.0,8.0,70,0.00,,SKC,0.00,VWS V14.01,2013-11-27 18:25:00,
2013-11-27 12:30:00,18.9,11.1,30.18,SE,134,7.0,8.0,71,0.00,,SKC,0.00,VWS V14.01,2013-11-27 18:30:00,
2013-11-27 12:35:00,19.0,11.2,30.18,SE,134,0.0,5.0,71,0.00,,SKC,0.00,VWS V14.01,2013-11-27 18:35:00,
2013-11-27 12:40:00,19.1,10.9,30.17,SE,134,0.0,5.0,70,0.00,,SKC,0.00,VWS V14.01,2013-11-27 18:40:00,
2013-11-27 12:45:00,19.3,11.1,30.17,SE,134,0.0,5.0,70,0.00,,SKC,0.00,VWS V14.01,2013-11-27 18:45:00,
2013-11-27 12:50:00,19.4,11.2,30.17,SE,134,0.0,5.0,70,0.00,,SKC,0.00,VWS V14.01,2013-11-27 18:50:00,
2013-11-27 12:55:00,19.5,11.3,30.16,SE,134,3.0,6.0,70,0.00,,SKC,0.00,VWS V14.01,2013-11-27 18:55:00,
2013-11-27 12:59:00,19.5,11.3,30.16,SE,134,0.0,6.0,70,0.00,,SKC,0.00,VWS V14.01,2013-11-27 18:59:00,
2013-11-27 13:00:00,19.6,11.4,30.16,SE,134,0.0,6.0,70,0.00,,SKC,0.00,VWS V14.01,2013-11-27 19:00:00,
2013-11-27 13:04:00,19.5,11.0,30.16,SE,134,0.0,6.0,69,0.00,,SKC,0.00,VWS V14.01,2013-11-27 19:04:00,
2013-11-27 13:09:00,19.5,10.7,30.16,SE,134,0.0,6.0,68,0.00,,SKC,0.00,VWS V14.01,2013-11-27 19:09:00,
2013-11-27 13:14:00,19.5,11.0,30.16,SE,134,0.0,6.0,69,0.00,,SKC,0.00,VWS V14.01,2013-11-27 19:14:00,
2013-11-27 13:19:00,19.7,11.5,30.16,SE,134,1.0,7.0,70,0.00,,SKC,0.00,VWS V14.01,2013-11-27 19:19:00,
2013-11-27 13:24:00,19.7,11.2,30.16,SE,134,0.0,7.0,69,0.00,,SKC,0.00,VWS V14.01,2013-11-27 19:24:00,
2013-11-27 13:29:00,19.7,10.9,30.15,SE,134,0.0,7.0,68,0.00,,SKC,0.00,VWS V14.01,2013-11-27 19:29:00,
2013-11-27 13:30:00,19.8,11.0,30.15,SE,134,3.0,7.0,68,0.00,,SKC,0.00,VWS V14.01,2013-11-27 19:30:00,
2013-11-27 13:34:00,20.0,11.1,30.14,SE,134,0.0,4.0,68,0.00,,SKC,0.00,VWS V14.01,2013-11-27 19:34:00,
2013-11-27 13:39:00,20.2,11.0,30.14,SE,134,2.0,7.0,67,0.00,,SKC,0.00,VWS V14.01,2013-11-27 19:39:00,
2013-11-27 13:44:00,20.2,11.0,30.13,SE,134,7.0,7.0,67,0.00,,SKC,0.00,VWS V14.01,2013-11-27 19:44:00,
2013-11-27 13:49:00,20.1,10.9,30.13,SE,134,6.0,10.0,67,0.00,,SKC,0.00,VWS V14.01,2013-11-27 19:49:00,
2013-11-27 13:54:00,19.9,10.7,30.12,SE,133,8.0,10.0,67,0.00,,SKC,0.00,VWS V14.01,2013-11-27 19:54:00,
2013-11-27 14:00:00,19.8,11.0,30.12,SE,133,1.0,10.0,68,0.00,,SKC,0.00,VWS V14.01,2013-11-27 20:00:00,
2013-11-27 14:05:00,19.8,10.3,30.12,SE,133,2.0,7.0,66,0.00,,SKC,0.00,VWS V14.01,2013-11-27 20:05:00,
2013-11-27 14:10:00,20.0,10.8,30.12,SE,133,4.0,7.0,67,0.00,,SKC,0.00,VWS V14.01,2013-11-27 20:10:00,
2013-11-27 14:15:00,20.1,10.6,30.12,SE,133,0.0,7.0,66,0.00,,SKC,0.00,VWS V14.01,2013-11-27 20:15:00,
2013-11-27 14:20:00,20.2,10.7,30.12,SE,133,1.0,7.0,66,0.00,,SKC,0.00,VWS V14.01,2013-11-27 20:20:00,
2013-11-27 14:25:00,20.2,10.7,30.12,SE,134,4.0,8.0,66,0.00,,SKC,0.00,VWS V14.01,2013-11-27 20:25:00,
2013-11-27 14:30:00,20.3,10.8,30.12,SE,134,2.0,8.0,66,0.00,,SKC,0.00,VWS V14.01,2013-11-27 20:30:00,
2013-11-27 14:35:00,20.4,10.9,30.12,SE,134,0.0,0.0,66,0.00,,SKC,0.00,VWS V14.01,2013-11-27 20:35:00,
2013-11-27 14:40:00,20.4,10.9,30.12,SE,134,5.0,5.0,66,0.00,,SKC,0.00,VWS V14.01,2013-11-27 20:40:00,
2013-11-27 14:45:00,20.4,10.5,30.12,SE,134,8.0,9.0,65,0.00,,SKC,0.00,VWS V14.01,2013-11-27 20:45:00,
2013-11-27 14:50:00,20.3,10.4,30.11,SE,134,0.0,9.0,65,0.00,,SKC,0.00,VWS V14.01,2013-11-27 20:50:00,
2013-11-27 14:55:00,20.3,10.8,30.11,SE,134,0.0,9.0,66,0.00,,SKC,0.00,VWS V14.01,2013-11-27 20:55:00,
2013-11-27 15:00:00,20.3,10.8,30.10,SE,134,6.0,9.0,66,0.00,,SKC,0.00,VWS V14.01,2013-11-27 21:00:00,
2013-11-27 15:05:00,20.2,11.0,30.10,SE,140,11.0,12.0,67,0.00,,SKC,0.00,VWS V14.01,2013-11-27 21:05:00,
2013-11-27 15:10:00,20.1,10.9,30.08,SSE,147,7.0,12.0,67,0.00,,SKC,0.00,VWS V14.01,2013-11-27 21:10:00,
2013-11-27 15:15:00,20.1,10.9,30.07,SE,130,13.0,14.0,67,0.00,,SKC,0.00,VWS V14.01,2013-11-27 21:15:00,
2013-11-27 15:20:00,20.0,10.8,30.08,SE,129,7.0,15.0,67,0.00,,SKC,0.00,VWS V14.01,2013-11-27 21:20:00,
2013-11-27 15:25:00,20.0,10.8,30.07,SE,124,12.0,15.0,67,0.00,,SKC,0.00,VWS V14.01,2013-11-27 21:25:00,
2013-11-27 15:30:00,20.1,10.9,30.08,ESE,121,10.0,15.0,67,0.00,,SKC,0.00,VWS V14.01,2013-11-27 21:30:00,
2013-11-27 15:35:00,20.2,11.0,30.08,SE,126,7.0,15.0,67,0.00,,SKC,0.00,VWS V14.01,2013-11-27 21:35:00,
2013-11-27 15:40:00,20.2,11.4,30.08,SE,130,6.0,15.0,68,0.00,,SKC,0.00,VWS V14.01,2013-11-27 21:40:00,
2013-11-27 15:45:00,20.4,11.2,30.08,SE,130,8.0,15.0,67,0.00,,SKC,0.00,VWS V14.01,2013-11-27 21:45:00,
2013-11-27 15:50:00,20.4,11.2,30.08,SE,130,8.0,15.0,67,0.00,,SKC,0.00,VWS V14.01,2013-11-27 21:50:00,
2013-11-27 15:55:00,20.5,11.3,30.08,SE,131,8.0,15.0,67,0.00,,SKC,0.00,VWS V14.01,2013-11-27 21:55:00,
2013-11-27 16:00:00,20.6,11.4,30.08,SE,132,4.0,15.0,67,0.00,,SKC,0.00,VWS V14.01,2013-11-27 22:00:00,
2013-11-27 16:05:00,20.6,11.1,30.08,SE,132,6.0,7.0,66,0.00,,SKC,0.00,VWS V14.01,2013-11-27 22:05:00,
2013-11-27 16:10:00,20.6,11.1,30.08,SE,132,5.0,9.0,66,0.00,,SKC,0.00,VWS V14.01,2013-11-27 22:10:00,
2013-11-27 16:15:00,20.7,11.1,30.07,SE,133,1.0,9.0,66,0.00,,SKC,0.00,VWS V14.01,2013-11-27 22:15:00,
2013-11-27 16:20:00,20.7,10.8,30.07,SE,133,7.0,9.0,65,0.00,,SKC,0.00,VWS V14.01,2013-11-27 22:20:00,
2013-11-27 16:26:00,20.7,11.1,30.07,SE,134,8.0,12.0,66,0.00,,SKC,0.00,VWS V14.01,2013-11-27 22:26:00,
2013-11-27 16:30:00,20.8,10.9,30.07,SE,136,4.0,12.0,65,0.00,,SKC,0.00,VWS V14.01,2013-11-27 22:30:00,
2013-11-27 16:31:00,20.8,10.9,30.07,SE,136,6.0,12.0,65,0.00,,SKC,0.00,VWS V14.01,2013-11-27 22:31:00,
2013-11-27 16:36:00,20.8,10.9,30.07,SE,134,12.0,13.0,65,0.00,,SKC,0.00,VWS V14.01,2013-11-27 22:36:00,
2013-11-27 16:41:00,20.8,10.9,30.06,SE,137,8.0,14.0,65,0.00,,SKC,0.00,VWS V14.01,2013-11-27 22:41:00,
2013-11-27 16:46:00,20.9,11.3,30.05,SE,129,10.0,16.0,66,0.00,,SKC,0.00,VWS V14.01,2013-11-27 22:46:00,
2013-11-27 16:51:00,20.9,11.3,30.05,SE,130,10.0,18.0,66,0.00,,SKC,0.00,VWS V14.01,2013-11-27 22:51:00,
2013-11-27 16:56:00,20.9,11.7,30.05,SE,128,14.0,18.0,67,0.00,,SKC,0.00,VWS V14.01,2013-11-27 22:56:00,
2013-11-27 17:00:00,20.9,11.0,30.04,SE,140,9.0,18.0,65,0.00,,SKC,0.00,VWS V14.01,2013-11-27 23:00:00,
2013-11-27 17:01:00,20.9,11.0,30.04,SE,143,10.0,18.0,65,0.00,,SKC,0.00,VWS V14.01,2013-11-27 23:01:00,
2013-11-27 17:06:00,20.8,10.9,30.04,SE,127,15.0,18.0,65,0.00,,SKC,0.00,VWS V14.01,2013-11-27 23:06:00,
2013-11-27 17:11:00,20.8,11.2,30.03,SE,130,12.0,18.0,66,0.00,,SKC,0.00,VWS V14.01,2013-11-27 23:11:00,
2013-11-27 17:16:00,20.8,11.6,30.03,ESE,123,10.0,18.0,67,0.00,,SKC,0.00,VWS V14.01,2013-11-27 23:16:00,
2013-11-27 17:21:00,20.8,11.9,30.03,SE,134,7.0,18.0,68,0.00,,SKC,0.00,VWS V14.01,2013-11-27 23:21:00,
2013-11-27 17:26:00,20.8,11.6,30.03,SE,128,14.0,18.0,67,0.00,,SKC,0.00,VWS V14.01,2013-11-27 23:26:00,
2013-11-27 17:30:00,20.8,11.6,30.03,SE,126,7.0,18.0,67,0.00,,SKC,0.00,VWS V14.01,2013-11-27 23:30:00,
2013-11-27 17:31:00,20.7,11.5,30.03,SE,126,9.0,18.0,67,0.00,,SKC,0.00,VWS V14.01,2013-11-27 23:31:00,
2013-11-27 17:36:00,20.7,11.1,30.03,SE,130,6.0,18.0,66,0.00,,SKC,0.00,VWS V14.01,2013-11-27 23:36:00,
2013-11-27 17:41:00,20.7,11.5,30.04,SE,125,12.0,18.0,67,0.00,,SKC,0.00,VWS V14.01,2013-11-27 23:41:00,
2013-11-27 17:46:00,20.7,10.8,30.04,SE,126,14.0,18.0,65,0.00,,SKC,0.00,VWS V14.01,2013-11-27 23:46:00,
2013-11-27 17:51:00,20.8,11.2,30.04,SE,135,10.0,18.0,66,0.00,,SKC,0.00,VWS V14.01,2013-11-27 23:51:00,
2013-11-27 17:56:00,20.8,11.2,30.05,SE,130,10.0,18.0,66,0.00,,SKC,0.00,VWS V14.01,2013-11-27 23:56:00,
2013-11-27 18:00:00,20.9,11.7,30.05,SE,131,9.0,18.0,67,0.00,,SKC,0.00,VWS V14.01,2013-11-28 00:00:00,
2013-11-27 18:01:00,20.9,11.7,30.05,SE,131,7.0,18.0,67,0.00,,SKC,0.00,VWS V14.01,2013-11-28 00:01:00,
2013-11-27 18:06:00,20.9,11.3,30.04,SE,130,6.0,12.0,66,0.00,,SKC,0.00,VWS V14.01,2013-11-28 00:06:00,
2013-11-27 18:11:00,20.9,11.3,30.05,SE,125,11.0,14.0,66,0.00,,SKC,0.00,VWS V14.01,2013-11-28 00:11:00,
2013-11-27 18:16:00,20.9,11.3,30.04,ESE,123,7.0,14.0,66,0.00,,SKC,0.00,VWS V14.01,2013-11-28 00:16:00,
2013-11-27 18:21:00,20.9,11.0,30.05,ESE,123,6.0,14.0,65,0.00,,SKC,0.00,VWS V14.01,2013-11-28 00:21:00,
2013-11-27 18:26:00,20.9,11.3,30.05,ESE,122,9.0,14.0,66,0.00,,SKC,0.00,VWS V14.01,2013-11-28 00:26:00,
2013-11-27 18:30:00,20.9,11.3,30.04,ESE,121,7.0,14.0,66,0.00,,SKC,0.00,VWS V14.01,2013-11-28 00:30:00,
2013-11-27 18:31:00,20.9,11.3,30.04,ESE,121,7.0,14.0,66,0.00,,SKC,0.00,VWS V14.01,2013-11-28 00:31:00,
2013-11-27 18:36:00,21.0,11.4,30.05,ESE,121,8.0,12.0,66,0.00,,SKC,0.00,VWS V14.01,2013-11-28 00:36:00,
2013-11-27 18:41:00,21.0,11.4,30.05,ESE,122,8.0,12.0,66,0.00,,SKC,0.00,VWS V14.01,2013-11-28 00:41:00,
2013-11-27 18:46:00,21.1,11.9,30.06,ESE,122,7.0,12.0,67,0.00,,SKC,0.00,VWS V14.01,2013-11-28 00:46:00,
2013-11-27 18:51:00,21.1,11.5,30.06,ESE,123,8.0,12.0,66,0.00,,SKC,0.00,VWS V14.01,2013-11-28 00:51:00,
2013-11-27 18:56:00,21.1,11.5,30.06,ESE,123,9.0,12.0,66,0.00,,SKC,0.00,VWS V14.01,2013-11-28 00:56:00,
2013-11-27 19:00:00,21.1,11.2,30.06,ESE,123,6.0,12.0,65,0.00,,SKC,0.00,VWS V14.01,2013-11-28 01:00:00,
2013-11-27 19:01:00,21.1,11.5,30.06,ESE,123,5.0,6.0,66,0.00,,SKC,0.00,VWS V14.01,2013-11-28 01:01:00,
2013-11-27 19:06:00,21.1,11.9,30.06,ESE,123,5.0,9.0,67,0.00,,SKC,0.00,VWS V14.01,2013-11-28 01:06:00,
2013-11-27 19:11:00,21.2,11.6,30.06,ESE,123,6.0,10.0,66,0.00,,SKC,0.00,VWS V14.01,2013-11-28 01:11:00,
2013-11-27 19:16:00,21.2,12.0,30.06,ESE,123,7.0,10.0,67,0.00,,SKC,0.00,VWS V14.01,2013-11-28 01:16:00,
2013-11-27 19:22:00,21.2,12.0,30.06,ESE,123,8.0,10.0,67,0.00,,SKC,0.00,VWS V14.01,2013-11-28 01:22:00,
2013-11-27 19:27:00,21.3,12.1,30.06,SE,124,5.0,10.0,67,0.00,,SKC,0.00,VWS V14.01,2013-11-28 01:27:00,
2013-11-27 19:30:00,21.3,11.7,30.06,SE,124,7.0,10.0,66,0.00,,SKC,0.00,VWS V14.01,2013-11-28 01:30:00,
2013-11-27 19:32:00,21.3,11.7,30.06,SE,124,8.0,8.0,66,0.00,,SKC,0.00,VWS V14.01,2013-11-28 01:32:00,
2013-11-27 19:37:00,21.3,11.7,30.06,SE,124,9.0,9.0,66,0.00,,SKC,0.00,VWS V14.01,2013-11-28 01:37:00,
2013-11-27 19:42:00,21.3,11.7,30.06,SE,124,3.0,9.0,66,0.00,,SKC,0.00,VWS V14.01,2013-11-28 01:42:00,
2013-11-27 19:47:00,21.3,11.7,30.06,SE,124,7.0,12.0,66,0.00,,SKC,0.00,VWS V14.01,2013-11-28 01:47:00,
2013-11-27 19:52:00,21.3,11.7,30.06,SE,124,7.0,12.0,66,0.00,,SKC,0.00,VWS V14.01,2013-11-28 01:52:00,
2013-11-27 19:57:00,21.4,12.2,30.06,SE,124,4.0,12.0,67,0.00,,SKC,0.00,VWS V14.01,2013-11-28 01:57:00,
2013-11-27 20:00:00,21.4,12.2,30.06,SE,124,6.0,12.0,67,0.00,,SKC,0.00,VWS V14.01,2013-11-28 02:00:00,
2013-11-27 20:02:00,21.4,12.2,30.05,SE,124,5.0,6.0,67,0.00,,SKC,0.00,VWS V14.01,2013-11-28 02:02:00,
2013-11-27 20:07:00,21.4,12.2,30.05,SE,124,3.0,9.0,67,0.00,,SKC,0.00,VWS V14.01,2013-11-28 02:07:00,
2013-11-27 20:12:00,21.4,11.8,30.05,SE,124,8.0,9.0,66,0.00,,SKC,0.00,VWS V14.01,2013-11-28 02:12:00,
2013-11-27 20:17:00,21.4,12.2,30.05,SE,124,8.0,9.0,67,0.00,,SKC,0.00,VWS V14.01,2013-11-28 02:17:00,
2013-11-27 20:22:00,21.4,11.8,30.05,SE,124,6.0,11.0,66,0.00,,SKC,0.00,VWS V14.01,2013-11-28 02:22:00,
2013-11-27 20:27:00,21.4,12.5,30.05,SE,124,8.0,11.0,68,0.00,,SKC,0.00,VWS V14.01,2013-11-28 02:27:00,
2013-11-27 20:30:00,21.4,12.2,30.05,SE,124,9.0,11.0,67,0.00,,SKC,0.00,VWS V14.01,2013-11-28 02:30:00,
2013-11-27 20:32:00,21.5,12.3,30.04,SE,124,6.0,11.0,67,0.00,,SKC,0.00,VWS V14.01,2013-11-28 02:32:00,
2013-11-27 20:37:00,21.5,12.6,30.04,SE,124,8.0,11.0,68,0.00,,SKC,0.00,VWS V14.01,2013-11-28 02:37:00,
2013-11-27 20:42:00,21.6,13.0,30.04,SE,125,8.0,11.0,69,0.00,,SKC,0.00,VWS V14.01,2013-11-28 02:42:00,
2013-11-27 20:47:00,21.5,12.6,30.04,SE,126,10.0,11.0,68,0.00,,SKC,0.00,VWS V14.01,2013-11-28 02:47:00,
2013-11-27 20:52:00,21.5,12.6,30.03,SE,127,8.0,11.0,68,0.00,,SKC,0.00,VWS V14.01,2013-11-28 02:52:00,
2013-11-27 20:57:00,21.5,12.6,30.03,SE,128,11.0,13.0,68,0.00,,SKC,0.00,VWS V14.01,2013-11-28 02:57:00,
2013-11-27 21:00:00,21.5,12.6,30.03,SE,129,8.0,13.0,68,0.00,,SKC,0.00,VWS V14.01,2013-11-28 03:00:00,
2013-11-27 21:02:00,21.5,12.6,30.02,SE,129,13.0,13.0,68,0.00,,SKC,0.00,VWS V14.01,2013-11-28 03:02:00,
2013-11-27 21:07:00,21.5,12.6,30.02,SE,130,5.0,13.0,68,0.00,,SKC,0.00,VWS V14.01,2013-11-28 03:07:00,
2013-11-27 21:12:00,21.5,12.6,30.02,SE,130,8.0,13.0,68,0.00,,SKC,0.00,VWS V14.01,2013-11-28 03:12:00,
2013-11-27 21:17:00,21.5,12.6,30.02,SE,129,8.0,13.0,68,0.00,,SKC,0.00,VWS V14.01,2013-11-28 03:17:00,
2013-11-27 21:22:00,21.6,13.0,30.02,SE,129,11.0,13.0,69,0.00,,SKC,0.00,VWS V14.01,2013-11-28 03:22:00,
2013-11-27 21:27:00,21.6,12.7,30.02,SE,129,8.0,13.0,68,0.00,,SKC,0.00,VWS V14.01,2013-11-28 03:27:00,
2013-11-27 21:30:00,21.6,13.0,30.02,SE,129,7.0,13.0,69,0.00,,SKC,0.00,VWS V14.01,2013-11-28 03:30:00,
2013-11-27 21:32:00,21.6,13.0,30.02,SE,128,10.0,11.0,69,0.00,,SKC,0.00,VWS V14.01,2013-11-28 03:32:00,
2013-11-27 21:37:00,21.6,12.7,30.01,SE,127,8.0,12.0,68,0.00,,SKC,0.00,VWS V14.01,2013-11-28 03:37:00,
2013-11-27 21:42:00,21.6,12.7,30.01,SE,126,9.0,13.0,68,0.00,,SKC,0.00,VWS V14.01,2013-11-28 03:42:00,
2013-11-27 21:47:00,21.6,13.0,30.01,SE,126,9.0,13.0,69,0.00,,SKC,0.00,VWS V14.01,2013-11-28 03:47:00,
2013-11-27 21:52:00,21.6,12.7,30.01,SE,127,8.0,13.0,68,0.00,,SKC,0.00,VWS V14.01,2013-11-28 03:52:00,
2013-11-27 21:57:00,21.6,12.7,30.01,SE,127,8.0,13.0,68,0.00,,SKC,0.00,VWS V14.01,2013-11-28 03:57:00,
2013-11-27 22:00:00,21.6,12.7,30.01,SE,127,9.0,13.0,68,0.00,,SKC,0.00,VWS V14.01,2013-11-28 04:00:00,
2013-11-27 22:02:00,21.6,13.0,30.01,SE,127,9.0,10.0,69,0.00,,SKC,0.00,VWS V14.01,2013-11-28 04:02:00,
2013-11-27 22:07:00,21.6,12.7,30.01,SE,128,7.0,11.0,68,0.00,,SKC,0.00,VWS V14.01,2013-11-28 04:07:00,
2013-11-27 22:12:00,21.6,13.0,30.01,SE,128,7.0,11.0,69,0.00,,SKC,0.00,VWS V14.01,2013-11-28 04:12:00,
2013-11-27 22:18:00,21.7,13.1,30.01,SE,127,8.0,11.0,69,0.00,,SKC,0.00,VWS V14.01,2013-11-28 04:18:00,
2013-11-27 22:23:00,21.7,13.1,30.00,SE,127,8.0,11.0,69,0.00,,SKC,0.00,VWS V14.01,2013-11-28 04:23:00,
2013-11-27 22:28:00,21.7,13.1,30.00,SE,127,7.0,11.0,69,0.00,,SKC,0.00,VWS V14.01,2013-11-28 04:28:00,
2013-11-27 22:30:00,21.7,13.1,30.00,SE,127,8.0,11.0,69,0.00,,SKC,0.00,VWS V14.01,2013-11-28 04:30:00,
2013-11-27 22:33:00,21.7,13.1,30.00,SE,127,8.0,10.0,69,0.00,,SKC,0.00,VWS V14.01,2013-11-28 04:33:00,
2013-11-27 22:38:00,21.7,13.1,30.00,SE,127,7.0,10.0,69,0.00,,SKC,0.00,VWS V14.01,2013-11-28 04:38:00,
2013-11-27 22:43:00,21.7,13.1,30.00,SE,127,6.0,12.0,69,0.00,,SKC,0.00,VWS V14.01,2013-11-28 04:43:00,
2013-11-27 22:48:00,21.7,13.1,30.00,SE,127,6.0,12.0,69,0.00,,SKC,0.00,VWS V14.01,2013-11-28 04:48:00,
2013-11-27 22:53:00,21.7,13.1,30.00,SE,126,7.0,12.0,69,0.00,,SKC,0.00,VWS V14.01,2013-11-28 04:53:00,
2013-11-27 22:58:00,21.7,13.1,30.00,SE,126,7.0,12.0,69,0.00,,SKC,0.00,VWS V14.01,2013-11-28 04:58:00,
2013-11-27 23:00:00,21.7,13.1,30.00,SE,127,8.0,12.0,69,0.00,,SKC,0.00,VWS V14.01,2013-11-28 05:00:00,
2013-11-27 23:01:00,21.7,13.1,30.00,SE,127,6.0,12.0,69,0.00,,SKC,0.00,VWS V14.01,2013-11-28 05:01:00,
2013-11-27 23:02:00,21.7,13.1,30.00,SE,127,5.0,8.0,69,0.00,,SKC,0.00,VWS V14.01,2013-11-28 05:02:00,
2013-11-27 23:03:00,21.8,13.2,30.00,SE,127,8.0,8.0,69,0.00,,SKC,0.00,VWS V14.01,2013-11-28 05:03:00,
2013-11-27 23:05:00,21.8,13.2,30.00,SE,127,9.0,10.0,69,0.00,,SKC,0.00,VWS V14.01,2013-11-28 05:05:00,
2013-11-27 23:07:00,21.8,13.2,30.00,SE,127,6.0,10.0,69,0.00,,SKC,0.00,VWS V14.01,2013-11-28 05:07:00,
2013-11-27 23:12:00,21.8,13.2,30.00,SE,128,8.0,10.0,69,0.00,,SKC,0.00,VWS V14.01,2013-11-28 05:12:00,
2013-11-27 23:17:00,21.8,13.2,30.00,SE,128,7.0,11.0,69,0.00,,SKC,0.00,VWS V14.01,2013-11-28 05:17:00,
2013-11-27 23:22:00,21.8,13.5,30.00,SE,127,9.0,11.0,70,0.00,,SKC,0.00,VWS V14.01,2013-11-28 05:22:00,
2013-11-27 23:27:00,21.9,13.3,29.99,SE,127,7.0,11.0,69,0.00,,SKC,0.00,VWS V14.01,2013-11-28 05:27:00,
2013-11-27 23:30:00,21.9,13.6,29.99,SE,127,8.0,11.0,70,0.00,,SKC,0.00,VWS V14.01,2013-11-28 05:30:00,
2013-11-27 23:32:00,21.9,13.6,29.99,SE,127,8.0,9.0,70,0.00,,SKC,0.00,VWS V14.01,2013-11-28 05:32:00,
2013-11-27 23:37:00,22.0,13.7,29.99,SE,127,4.0,9.0,70,0.00,,SKC,0.00,VWS V14.01,2013-11-28 05:37:00,
2013-11-27 23:42:00,22.0,13.4,29.99,SE,128,2.0,9.0,69,0.00,,SKC,0.00,VWS V14.01,2013-11-28 05:42:00,
2013-11-27 23:47:00,22.0,13.4,29.99,SE,128,4.0,9.0,69,0.00,,SKC,0.00,VWS V14.01,2013-11-28 05:47:00,
2013-11-27 23:52:00,22.0,13.4,29.99,SE,128,7.0,9.0,69,0.00,,SKC,0.00,VWS V14.01,2013-11-28 05:52:00,
2013-11-27 23:57:00,22.0,13.1,29.99,SE,128,8.0,9.0,68,0.00,,SKC,0.00,VWS V14.01,2013-11-28 05:57:00,